Otis Orchards, WA

2:45 AM PDT on October 02, 2014 (GMT -0700)
Otis Orchards | Change Station
CLOSE
Current Station
Personal Weather Station
Location: Otis Orchards, WA
Elevation: 2065 ft
Nearby Weather Stations

Elev 2065 ft 47.70 °N, 117.10 °W | Updated 4 seconds ago

Partly Cloudy
Partly Cloudy
49.0 °F
Feels Like 49 °F
N
0.0
Wind Variable Wind from West
Gusts 0.0 mph

Today
High -- | Low -- °F
--% Chance of Precip.
Yesterday
High -- | Low -- °F
Precip. -- in
6:49 AM 6:25 PM
First Quarter, 57% visible
Pressure 30.06 in
Visibility 10.0 miles
Clouds Clear
Windchill 49 °F
Dew Point 39 °F
Humidity 68%
Rainfall 0.00 in
Snow Depth 0 in
UV 0 out of 12
Pollen 5.70 out of 12
PM2.5 Good
Flu Activity Not available.
METAR KSFF 020853Z 00000KT 10SM CLR 12/02 A3007 RMK AO2 SLP179 T01170022 53015

More Conditions Fewer Conditions

Pressure 30.06 in
Visibility 10.0 miles
Clouds Clear
Windchill 49 °F
Dew Point 39 °F
Humidity 68%
Rainfall 0.00 in
Snow Depth 0 in
UV 0 out of 12
Pollen 5.70 out of 12
PM2.5 Good
Flu Activity Not available.
METAR KSFF 020853Z 00000KT 10SM CLR 12/02 A3007 RMK AO2 SLP179 T01170022 53015

More Conditions Fewer Conditions

10-Day Weather Forecast

Almanac

Astronomy

Oct. 02, 2014 Rise Set
Actual Time 6:49 AM PDT 6:25 PM PDT
Civil Twilight 6:18 AM PDT 6:56 PM PDT
Nautical Twilight 5:42 AM PDT 7:32 PM PDT
Astronomical Twilight 5:06 AM PDT 8:08 PM PDT
Moon 2:57 PM PDT No Moon Set
Length of Visible Light 12h 37m
Length of Day
11h 36m
Tomorrow will be 3m 24s shorter.
First Quarter, 57% of the Moon is Illuminated
Today
First Quarter
Oct 8
Full
Oct 15
Last Quarter
Oct 23
New
Oct 30
First Quarter

Today's Extremes

State Highs State Lows

Community

WunderPhotos

Upload Photos

1,758,206 photos uploaded!

WunderBlogs® & News

By Dr. Jeff Masters
Director of Meteorology, Weather Underground
By Kari Strenfel
Meteorologist, Weather Underground
By Christopher C. Burt
Weather Historian, Weather Underground
October 2, 2014
October 2, 2014
October 2, 2014

Nearby

Air Quality

  Air Quality AQ Index Pollutant
Yesterday Good
OZONE
Yesterday Good
PM10
Current Good
PM2.5
Thursday Good
PM10
Thursday Good
CO

Snow Depth

Station Depth Elevation
Sheep Canyon 0 in 4030 ft
Mount Crag 0 in 4050 ft
Grouse Camp 0 in 5380 ft
Trough 1 in 5300 ft
Stampede Pass 0 in 3860 ft

Earthquake Activity

City Distance Mag. Time & Date
No recent earthquake activity has been reported nearby.
Minimum magnitude displayed is 2.5.

Coastal Water Temperatures

Place Temperature
No Stations Reporting

Nearby Weather Stations